sensor_id;sensor_type;location;lat;lon;timestamp;P1;durP1;ratioP1;P2;durP2;ratioP2
35959;SDS011;22043;50.970;7.192;2024-01-06T00:00:29;5.13;;;2.17;;
35959;SDS011;22043;50.970;7.192;2024-01-06T00:02:55;4.35;;;1.60;;
35959;SDS011;22043;50.970;7.192;2024-01-06T00:05:22;4.85;;;2.15;;
35959;SDS011;22043;50.970;7.192;2024-01-06T00:07:47;4.40;;;1.90;;
35959;SDS011;22043;50.970;7.192;2024-01-06T00:10:13;4.93;;;2.30;;
35959;SDS011;22043;50.970;7.192;2024-01-06T00:12:39;4.30;;;1.73;;
35959;SDS011;22043;50.970;7.192;2024-01-06T00:15:05;4.75;;;1.52;;
35959;SDS011;22043;50.970;7.192;2024-01-06T00:17:31;4.00;;;1.90;;
35959;SDS011;22043;50.970;7.192;2024-01-06T00:19:58;4.50;;;2.03;;
35959;SDS011;22043;50.970;7.192;2024-01-06T00:22:25;3.87;;;1.93;;
35959;SDS011;22043;50.970;7.192;2024-01-06T00:24:50;4.45;;;1.95;;
35959;SDS011;22043;50.970;7.192;2024-01-06T00:27:16;5.70;;;2.45;;
35959;SDS011;22043;50.970;7.192;2024-01-06T00:29:42;8.77;;;2.40;;
35959;SDS011;22043;50.970;7.192;2024-01-06T00:32:07;6.45;;;2.10;;
35959;SDS011;22043;50.970;7.192;2024-01-06T00:34:33;5.63;;;2.17;;
35959;SDS011;22043;50.970;7.192;2024-01-06T00:36:58;3.35;;;2.20;;
35959;SDS011;22043;50.970;7.192;2024-01-06T00:39:24;7.45;;;3.22;;
35959;SDS011;22043;50.970;7.192;2024-01-06T00:41:49;4.93;;;2.75;;
35959;SDS011;22043;50.970;7.192;2024-01-06T00:44:14;5.65;;;2.90;;
35959;SDS011;22043;50.970;7.192;2024-01-06T00:46:40;5.78;;;2.63;;
35959;SDS011;22043;50.970;7.192;2024-01-06T00:49:05;5.20;;;2.92;;
35959;SDS011;22043;50.970;7.192;2024-01-06T00:51:31;5.45;;;2.65;;
35959;SDS011;22043;50.970;7.192;2024-01-06T00:53:56;7.18;;;4.20;;
35959;SDS011;22043;50.970;7.192;2024-01-06T00:56:22;8.70;;;3.35;;
35959;SDS011;22043;50.970;7.192;2024-01-06T00:58:47;9.32;;;2.95;;
35959;SDS011;22043;50.970;7.192;2024-01-06T01:01:13;6.90;;;3.60;;
35959;SDS011;22043;50.970;7.192;2024-01-06T01:03:38;6.78;;;3.50;;
35959;SDS011;22043;50.970;7.192;2024-01-06T01:06:04;7.25;;;3.58;;
35959;SDS011;22043;50.970;7.192;2024-01-06T01:08:29;6.80;;;3.90;;
35959;SDS011;22043;50.970;7.192;2024-01-06T01:10:55;7.55;;;3.58;;
35959;SDS011;22043;50.970;7.192;2024-01-06T01:13:22;7.45;;;4.50;;
35959;SDS011;22043;50.970;7.192;2024-01-06T01:15:47;7.28;;;4.25;;
35959;SDS011;22043;50.970;7.192;2024-01-06T01:18:13;8.25;;;4.00;;
35959;SDS011;22043;50.970;7.192;2024-01-06T01:20:39;9.70;;;4.38;;
35959;SDS011;22043;50.970;7.192;2024-01-06T01:23:06;7.20;;;4.00;;
35959;SDS011;22043;50.970;7.192;2024-01-06T01:25:32;7.85;;;4.05;;
35959;SDS011;22043;50.970;7.192;2024-01-06T01:27:57;7.85;;;4.38;;
35959;SDS011;22043;50.970;7.192;2024-01-06T01:30:23;9.23;;;4.65;;
35959;SDS011;22043;50.970;7.192;2024-01-06T01:32:48;9.88;;;5.20;;
35959;SDS011;22043;50.970;7.192;2024-01-06T01:35:14;9.57;;;4.32;;
35959;SDS011;22043;50.970;7.192;2024-01-06T01:37:40;9.15;;;4.65;;
35959;SDS011;22043;50.970;7.192;2024-01-06T01:40:05;9.65;;;4.90;;
35959;SDS011;22043;50.970;7.192;2024-01-06T01:42:32;8.60;;;4.55;;
35959;SDS011;22043;50.970;7.192;2024-01-06T01:44:58;8.23;;;4.07;;
35959;SDS011;22043;50.970;7.192;2024-01-06T01:47:23;7.15;;;4.72;;
35959;SDS011;22043;50.970;7.192;2024-01-06T01:49:49;6.50;;;4.13;;
35959;SDS011;22043;50.970;7.192;2024-01-06T01:52:16;9.70;;;4.90;;
35959;SDS011;22043;50.970;7.192;2024-01-06T01:54:41;8.68;;;4.20;;
35959;SDS011;22043;50.970;7.192;2024-01-06T01:57:07;8.93;;;5.15;;
35959;SDS011;22043;50.970;7.192;2024-01-06T01:59:32;9.27;;;4.85;;
35959;SDS011;22043;50.970;7.192;2024-01-06T02:01:58;10.02;;;5.13;;
35959;SDS011;22043;50.970;7.192;2024-01-06T02:04:24;10.32;;;5.47;;
35959;SDS011;22043;50.970;7.192;2024-01-06T02:06:50;8.05;;;4.85;;
35959;SDS011;22043;50.970;7.192;2024-01-06T02:09:15;10.05;;;5.25;;
35959;SDS011;22043;50.970;7.192;2024-01-06T02:11:41;11.15;;;5.45;;
35959;SDS011;22043;50.970;7.192;2024-01-06T02:14:06;10.32;;;5.55;;
35959;SDS011;22043;50.970;7.192;2024-01-06T02:16:31;9.38;;;6.10;;
35959;SDS011;22043;50.970;7.192;2024-01-06T02:18:57;9.15;;;5.47;;
35959;SDS011;22043;50.970;7.192;2024-01-06T02:21:23;11.48;;;6.32;;
35959;SDS011;22043;50.970;7.192;2024-01-06T02:23:49;10.20;;;5.13;;
35959;SDS011;22043;50.970;7.192;2024-01-06T02:26:16;9.55;;;5.28;;
35959;SDS011;22043;50.970;7.192;2024-01-06T02:28:41;9.48;;;5.50;;
35959;SDS011;22043;50.970;7.192;2024-01-06T02:31:10;11.52;;;5.22;;
35959;SDS011;22043;50.970;7.192;2024-01-06T02:33:35;10.05;;;5.15;;
35959;SDS011;22043;50.970;7.192;2024-01-06T02:36:02;11.60;;;6.47;;
35959;SDS011;22043;50.970;7.192;2024-01-06T02:38:27;13.30;;;6.25;;
35959;SDS011;22043;50.970;7.192;2024-01-06T02:40:52;10.82;;;6.47;;
35959;SDS011;22043;50.970;7.192;2024-01-06T02:43:18;9.57;;;6.10;;
35959;SDS011;22043;50.970;7.192;2024-01-06T02:45:43;9.93;;;5.78;;
35959;SDS011;22043;50.970;7.192;2024-01-06T02:48:09;10.77;;;6.03;;
35959;SDS011;22043;50.970;7.192;2024-01-06T02:50:34;11.10;;;6.00;;
35959;SDS011;22043;50.970;7.192;2024-01-06T02:53:00;14.65;;;7.45;;
35959;SDS011;22043;50.970;7.192;2024-01-06T02:55:25;13.68;;;7.15;;
35959;SDS011;22043;50.970;7.192;2024-01-06T02:57:50;11.77;;;6.90;;
35959;SDS011;22043;50.970;7.192;2024-01-06T03:00:16;14.32;;;6.65;;
35959;SDS011;22043;50.970;7.192;2024-01-06T03:02:41;13.00;;;7.00;;
35959;SDS011;22043;50.970;7.192;2024-01-06T03:05:08;11.70;;;6.72;;
35959;SDS011;22043;50.970;7.192;2024-01-06T03:07:34;10.85;;;6.13;;
35959;SDS011;22043;50.970;7.192;2024-01-06T03:09:59;12.88;;;6.50;;
35959;SDS011;22043;50.970;7.192;2024-01-06T03:12:25;12.85;;;6.93;;
35959;SDS011;22043;50.970;7.192;2024-01-06T03:14:50;11.73;;;6.50;;
35959;SDS011;22043;50.970;7.192;2024-01-06T03:17:17;12.15;;;6.80;;
35959;SDS011;22043;50.970;7.192;2024-01-06T03:19:43;11.02;;;6.13;;
35959;SDS011;22043;50.970;7.192;2024-01-06T03:22:09;10.00;;;5.73;;
35959;SDS011;22043;50.970;7.192;2024-01-06T03:24:35;10.18;;;5.72;;
35959;SDS011;22043;50.970;7.192;2024-01-06T03:27:00;11.23;;;5.70;;
35959;SDS011;22043;50.970;7.192;2024-01-06T03:29:26;10.38;;;5.60;;
35959;SDS011;22043;50.970;7.192;2024-01-06T03:31:51;11.27;;;5.70;;
35959;SDS011;22043;50.970;7.192;2024-01-06T03:34:16;11.82;;;5.95;;
35959;SDS011;22043;50.970;7.192;2024-01-06T03:36:42;10.48;;;5.47;;
35959;SDS011;22043;50.970;7.192;2024-01-06T03:39:07;12.70;;;6.97;;
35959;SDS011;22043;50.970;7.192;2024-01-06T03:41:33;12.27;;;6.28;;
35959;SDS011;22043;50.970;7.192;2024-01-06T03:43:59;10.18;;;6.20;;
35959;SDS011;22043;50.970;7.192;2024-01-06T03:46:24;10.63;;;5.65;;
35959;SDS011;22043;50.970;7.192;2024-01-06T03:48:50;11.27;;;6.47;;
35959;SDS011;22043;50.970;7.192;2024-01-06T03:51:15;13.68;;;6.05;;
35959;SDS011;22043;50.970;7.192;2024-01-06T03:53:41;14.20;;;6.00;;
35959;SDS011;22043;50.970;7.192;2024-01-06T03:56:06;14.02;;;5.88;;
35959;SDS011;22043;50.970;7.192;2024-01-06T03:58:32;13.75;;;6.15;;
35959;SDS011;22043;50.970;7.192;2024-01-06T04:00:58;9.93;;;5.50;;
35959;SDS011;22043;50.970;7.192;2024-01-06T04:03:23;14.23;;;5.90;;
35959;SDS011;22043;50.970;7.192;2024-01-06T04:05:48;12.00;;;6.60;;
35959;SDS011;22043;50.970;7.192;2024-01-06T04:08:14;11.40;;;5.88;;
35959;SDS011;22043;50.970;7.192;2024-01-06T04:10:39;14.45;;;7.22;;
35959;SDS011;22043;50.970;7.192;2024-01-06T04:13:06;13.98;;;6.32;;
35959;SDS011;22043;50.970;7.192;2024-01-06T04:15:35;14.88;;;7.25;;
35959;SDS011;22043;50.970;7.192;2024-01-06T04:18:01;12.95;;;6.80;;
35959;SDS011;22043;50.970;7.192;2024-01-06T04:20:28;15.23;;;7.27;;
35959;SDS011;22043;50.970;7.192;2024-01-06T04:22:54;16.70;;;6.72;;
35959;SDS011;22043;50.970;7.192;2024-01-06T04:25:19;13.20;;;6.53;;
35959;SDS011;22043;50.970;7.192;2024-01-06T04:27:45;13.60;;;6.80;;
35959;SDS011;22043;50.970;7.192;2024-01-06T04:30:12;13.52;;;7.05;;
35959;SDS011;22043;50.970;7.192;2024-01-06T04:32:38;15.00;;;6.93;;
35959;SDS011;22043;50.970;7.192;2024-01-06T04:35:04;16.05;;;7.25;;
35959;SDS011;22043;50.970;7.192;2024-01-06T04:37:31;17.45;;;8.25;;
35959;SDS011;22043;50.970;7.192;2024-01-06T04:39:56;15.00;;;7.72;;
35959;SDS011;22043;50.970;7.192;2024-01-06T04:42:23;13.80;;;7.45;;
35959;SDS011;22043;50.970;7.192;2024-01-06T04:44:49;18.65;;;8.18;;
35959;SDS011;22043;50.970;7.192;2024-01-06T04:47:15;15.60;;;7.63;;
35959;SDS011;22043;50.970;7.192;2024-01-06T04:49:41;15.85;;;8.23;;
35959;SDS011;22043;50.970;7.192;2024-01-06T04:52:06;17.58;;;9.18;;
35959;SDS011;22043;50.970;7.192;2024-01-06T04:54:32;15.85;;;8.18;;
35959;SDS011;22043;50.970;7.192;2024-01-06T04:57:00;15.32;;;8.25;;
35959;SDS011;22043;50.970;7.192;2024-01-06T04:59:26;17.20;;;8.10;;
35959;SDS011;22043;50.970;7.192;2024-01-06T05:01:51;19.60;;;8.48;;
35959;SDS011;22043;50.970;7.192;2024-01-06T05:04:17;16.33;;;8.60;;
35959;SDS011;22043;50.970;7.192;2024-01-06T05:06:43;19.50;;;8.93;;
35959;SDS011;22043;50.970;7.192;2024-01-06T05:09:09;20.65;;;8.15;;
35959;SDS011;22043;50.970;7.192;2024-01-06T05:11:34;17.67;;;10.00;;
35959;SDS011;22043;50.970;7.192;2024-01-06T05:14:00;25.73;;;9.73;;
35959;SDS011;22043;50.970;7.192;2024-01-06T05:16:25;18.40;;;8.90;;
35959;SDS011;22043;50.970;7.192;2024-01-06T05:18:51;22.05;;;11.18;;
35959;SDS011;22043;50.970;7.192;2024-01-06T05:21:16;20.25;;;10.45;;
35959;SDS011;22043;50.970;7.192;2024-01-06T05:23:42;20.50;;;9.02;;
35959;SDS011;22043;50.970;7.192;2024-01-06T05:26:08;18.33;;;9.32;;
35959;SDS011;22043;50.970;7.192;2024-01-06T05:28:35;23.65;;;10.73;;
35959;SDS011;22043;50.970;7.192;2024-01-06T05:31:00;19.55;;;9.85;;
35959;SDS011;22043;50.970;7.192;2024-01-06T05:33:26;23.25;;;11.07;;
35959;SDS011;22043;50.970;7.192;2024-01-06T05:35:51;26.00;;;10.90;;
35959;SDS011;22043;50.970;7.192;2024-01-06T05:38:17;22.13;;;10.63;;
35959;SDS011;22043;50.970;7.192;2024-01-06T05:40:42;20.50;;;9.57;;
35959;SDS011;22043;50.970;7.192;2024-01-06T05:43:07;18.95;;;9.50;;
35959;SDS011;22043;50.970;7.192;2024-01-06T05:45:33;20.25;;;10.02;;
35959;SDS011;22043;50.970;7.192;2024-01-06T05:47:58;21.65;;;10.73;;
35959;SDS011;22043;50.970;7.192;2024-01-06T05:50:24;20.27;;;9.50;;
35959;SDS011;22043;50.970;7.192;2024-01-06T05:52:49;20.75;;;9.27;;
35959;SDS011;22043;50.970;7.192;2024-01-06T05:55:15;20.55;;;10.00;;
35959;SDS011;22043;50.970;7.192;2024-01-06T05:57:41;18.45;;;9.13;;
35959;SDS011;22043;50.970;7.192;2024-01-06T06:00:09;23.85;;;10.30;;
35959;SDS011;22043;50.970;7.192;2024-01-06T06:02:37;23.92;;;11.02;;
35959;SDS011;22043;50.970;7.192;2024-01-06T06:05:04;23.17;;;10.32;;
35959;SDS011;22043;50.970;7.192;2024-01-06T06:07:29;20.48;;;9.82;;
35959;SDS011;22043;50.970;7.192;2024-01-06T06:09:55;24.08;;;10.25;;
35959;SDS011;22043;50.970;7.192;2024-01-06T06:12:20;21.95;;;8.93;;
35959;SDS011;22043;50.970;7.192;2024-01-06T06:14:45;20.23;;;9.07;;
35959;SDS011;22043;50.970;7.192;2024-01-06T06:17:11;20.05;;;9.60;;
35959;SDS011;22043;50.970;7.192;2024-01-06T06:19:36;17.33;;;8.68;;
35959;SDS011;22043;50.970;7.192;2024-01-06T06:22:02;17.27;;;7.72;;
35959;SDS011;22043;50.970;7.192;2024-01-06T06:24:28;18.60;;;8.35;;
35959;SDS011;22043;50.970;7.192;2024-01-06T06:26:54;14.18;;;6.95;;
35959;SDS011;22043;50.970;7.192;2024-01-06T06:29:19;15.77;;;7.60;;
35959;SDS011;22043;50.970;7.192;2024-01-06T06:31:46;12.88;;;7.13;;
35959;SDS011;22043;50.970;7.192;2024-01-06T06:34:12;16.70;;;7.28;;
35959;SDS011;22043;50.970;7.192;2024-01-06T06:36:37;16.33;;;8.07;;
35959;SDS011;22043;50.970;7.192;2024-01-06T06:39:03;17.10;;;7.35;;
35959;SDS011;22043;50.970;7.192;2024-01-06T06:41:29;13.48;;;6.57;;
35959;SDS011;22043;50.970;7.192;2024-01-06T06:43:55;13.98;;;6.15;;
35959;SDS011;22043;50.970;7.192;2024-01-06T06:46:22;18.05;;;6.45;;
35959;SDS011;22043;50.970;7.192;2024-01-06T06:48:48;10.38;;;5.10;;
35959;SDS011;22043;50.970;7.192;2024-01-06T06:51:13;12.82;;;5.70;;
35959;SDS011;22043;50.970;7.192;2024-01-06T06:53:39;11.00;;;5.05;;
35959;SDS011;22043;50.970;7.192;2024-01-06T06:56:04;10.32;;;5.07;;
35959;SDS011;22043;50.970;7.192;2024-01-06T06:58:30;10.70;;;4.82;;
35959;SDS011;22043;50.970;7.192;2024-01-06T07:00:55;12.55;;;5.68;;
35959;SDS011;22043;50.970;7.192;2024-01-06T07:03:21;11.50;;;5.70;;
35959;SDS011;22043;50.970;7.192;2024-01-06T07:05:46;11.07;;;5.03;;
35959;SDS011;22043;50.970;7.192;2024-01-06T07:08:12;8.85;;;4.57;;
35959;SDS011;22043;50.970;7.192;2024-01-06T07:10:40;10.68;;;4.50;;
35959;SDS011;22043;50.970;7.192;2024-01-06T07:13:06;9.90;;;4.22;;
35959;SDS011;22043;50.970;7.192;2024-01-06T07:15:31;10.35;;;3.95;;
35959;SDS011;22043;50.970;7.192;2024-01-06T07:17:57;10.00;;;4.95;;
35959;SDS011;22043;50.970;7.192;2024-01-06T07:20:22;11.38;;;5.22;;
35959;SDS011;22043;50.970;7.192;2024-01-06T07:22:48;12.23;;;5.43;;
35959;SDS011;22043;50.970;7.192;2024-01-06T07:25:13;12.80;;;4.82;;
35959;SDS011;22043;50.970;7.192;2024-01-06T07:27:39;10.57;;;5.03;;
35959;SDS011;22043;50.970;7.192;2024-01-06T07:30:04;12.50;;;5.15;;
35959;SDS011;22043;50.970;7.192;2024-01-06T07:32:33;10.70;;;5.35;;
35959;SDS011;22043;50.970;7.192;2024-01-06T07:34:58;11.70;;;5.28;;
35959;SDS011;22043;50.970;7.192;2024-01-06T07:37:23;16.58;;;6.55;;
35959;SDS011;22043;50.970;7.192;2024-01-06T07:39:49;13.07;;;5.50;;
35959;SDS011;22043;50.970;7.192;2024-01-06T07:42:14;15.73;;;6.35;;
35959;SDS011;22043;50.970;7.192;2024-01-06T07:44:40;15.80;;;6.30;;
35959;SDS011;22043;50.970;7.192;2024-01-06T07:47:05;14.80;;;5.65;;
35959;SDS011;22043;50.970;7.192;2024-01-06T07:49:31;13.45;;;6.28;;
35959;SDS011;22043;50.970;7.192;2024-01-06T07:51:56;13.63;;;5.40;;
35959;SDS011;22043;50.970;7.192;2024-01-06T07:54:22;12.20;;;5.80;;
35959;SDS011;22043;50.970;7.192;2024-01-06T07:56:47;13.68;;;5.60;;
35959;SDS011;22043;50.970;7.192;2024-01-06T07:59:13;12.05;;;5.10;;
35959;SDS011;22043;50.970;7.192;2024-01-06T08:01:39;13.68;;;5.57;;
35959;SDS011;22043;50.970;7.192;2024-01-06T08:04:04;14.07;;;6.28;;
35959;SDS011;22043;50.970;7.192;2024-01-06T08:06:30;14.98;;;6.07;;
35959;SDS011;22043;50.970;7.192;2024-01-06T08:08:55;16.15;;;7.57;;
35959;SDS011;22043;50.970;7.192;2024-01-06T08:11:20;18.23;;;8.25;;
35959;SDS011;22043;50.970;7.192;2024-01-06T08:13:46;18.63;;;8.32;;
35959;SDS011;22043;50.970;7.192;2024-01-06T08:16:12;18.20;;;9.20;;
35959;SDS011;22043;50.970;7.192;2024-01-06T08:18:37;20.75;;;8.40;;
35959;SDS011;22043;50.970;7.192;2024-01-06T08:21:03;19.23;;;8.75;;
35959;SDS011;22043;50.970;7.192;2024-01-06T08:23:28;20.50;;;9.20;;
35959;SDS011;22043;50.970;7.192;2024-01-06T08:25:53;20.77;;;9.30;;
35959;SDS011;22043;50.970;7.192;2024-01-06T08:28:19;25.88;;;8.68;;
35959;SDS011;22043;50.970;7.192;2024-01-06T08:30:46;17.00;;;7.35;;
35959;SDS011;22043;50.970;7.192;2024-01-06T08:33:11;19.83;;;8.80;;
35959;SDS011;22043;50.970;7.192;2024-01-06T08:35:37;18.10;;;8.00;;
35959;SDS011;22043;50.970;7.192;2024-01-06T08:40:33;14.45;;;6.78;;
35959;SDS011;22043;50.970;7.192;2024-01-06T08:42:59;19.25;;;7.45;;
35959;SDS011;22043;50.970;7.192;2024-01-06T08:45:25;19.88;;;7.43;;
35959;SDS011;22043;50.970;7.192;2024-01-06T08:47:50;16.23;;;7.47;;
35959;SDS011;22043;50.970;7.192;2024-01-06T08:50:16;17.65;;;6.53;;
35959;SDS011;22043;50.970;7.192;2024-01-06T08:52:41;15.25;;;6.28;;
35959;SDS011;22043;50.970;7.192;2024-01-06T08:55:07;17.35;;;7.35;;
35959;SDS011;22043;50.970;7.192;2024-01-06T08:57:33;16.70;;;7.15;;
35959;SDS011;22043;50.970;7.192;2024-01-06T08:59:58;14.88;;;6.50;;
35959;SDS011;22043;50.970;7.192;2024-01-06T09:02:24;14.10;;;6.90;;
35959;SDS011;22043;50.970;7.192;2024-01-06T09:04:49;16.58;;;6.65;;
35959;SDS011;22043;50.970;7.192;2024-01-06T09:07:14;12.50;;;5.65;;
35959;SDS011;22043;50.970;7.192;2024-01-06T09:09:42;15.75;;;5.68;;
35959;SDS011;22043;50.970;7.192;2024-01-06T09:12:08;16.10;;;6.78;;
35959;SDS011;22043;50.970;7.192;2024-01-06T09:14:33;14.10;;;6.35;;
35959;SDS011;22043;50.970;7.192;2024-01-06T09:16:59;12.10;;;5.93;;
35959;SDS011;22043;50.970;7.192;2024-01-06T09:19:24;13.00;;;5.95;;
35959;SDS011;22043;50.970;7.192;2024-01-06T09:21:50;13.95;;;5.95;;
35959;SDS011;22043;50.970;7.192;2024-01-06T09:24:15;15.07;;;5.65;;
35959;SDS011;22043;50.970;7.192;2024-01-06T09:26:41;13.30;;;5.68;;
35959;SDS011;22043;50.970;7.192;2024-01-06T09:29:06;11.00;;;5.75;;
35959;SDS011;22043;50.970;7.192;2024-01-06T09:31:32;15.48;;;6.30;;
35959;SDS011;22043;50.970;7.192;2024-01-06T09:34:00;17.05;;;7.32;;
35959;SDS011;22043;50.970;7.192;2024-01-06T09:36:30;13.63;;;5.72;;
35959;SDS011;22043;50.970;7.192;2024-01-06T09:38:56;11.23;;;5.55;;
35959;SDS011;22043;50.970;7.192;2024-01-06T09:41:21;15.55;;;6.38;;
35959;SDS011;22043;50.970;7.192;2024-01-06T09:43:47;15.10;;;6.18;;
35959;SDS011;22043;50.970;7.192;2024-01-06T09:46:25;14.30;;;6.07;;
35959;SDS011;22043;50.970;7.192;2024-01-06T09:48:52;14.15;;;5.70;;
35959;SDS011;22043;50.970;7.192;2024-01-06T09:51:18;12.23;;;5.28;;
35959;SDS011;22043;50.970;7.192;2024-01-06T09:53:48;8.85;;;3.97;;
35959;SDS011;22043;50.970;7.192;2024-01-06T09:56:15;10.73;;;4.47;;
35959;SDS011;22043;50.970;7.192;2024-01-06T09:58:41;8.85;;;4.25;;
35959;SDS011;22043;50.970;7.192;2024-01-06T10:01:07;13.38;;;4.53;;
35959;SDS011;22043;50.970;7.192;2024-01-06T10:03:34;14.65;;;4.88;;
35959;SDS011;22043;50.970;7.192;2024-01-06T10:06:01;12.40;;;5.35;;
35959;SDS011;22043;50.970;7.192;2024-01-06T10:08:29;13.13;;;6.05;;
35959;SDS011;22043;50.970;7.192;2024-01-06T10:10:54;13.32;;;6.65;;
35959;SDS011;22043;50.970;7.192;2024-01-06T10:13:20;12.57;;;5.70;;
35959;SDS011;22043;50.970;7.192;2024-01-06T10:15:45;12.02;;;5.85;;
35959;SDS011;22043;50.970;7.192;2024-01-06T10:18:11;12.95;;;6.18;;
35959;SDS011;22043;50.970;7.192;2024-01-06T10:20:38;14.63;;;7.65;;
35959;SDS011;22043;50.970;7.192;2024-01-06T10:23:06;15.85;;;7.18;;
35959;SDS011;22043;50.970;7.192;2024-01-06T10:25:32;15.80;;;8.20;;
35959;SDS011;22043;50.970;7.192;2024-01-06T10:28:00;16.10;;;6.97;;
35959;SDS011;22043;50.970;7.192;2024-01-06T10:30:26;15.32;;;7.45;;
35959;SDS011;22043;50.970;7.192;2024-01-06T10:32:52;14.65;;;6.70;;
35959;SDS011;22043;50.970;7.192;2024-01-06T10:35:18;14.10;;;7.65;;
35959;SDS011;22043;50.970;7.192;2024-01-06T10:37:43;15.20;;;7.45;;
35959;SDS011;22043;50.970;7.192;2024-01-06T10:40:14;16.77;;;6.95;;
35959;SDS011;22043;50.970;7.192;2024-01-06T10:42:44;16.40;;;7.25;;
35959;SDS011;22043;50.970;7.192;2024-01-06T10:45:10;17.52;;;7.65;;
35959;SDS011;22043;50.970;7.192;2024-01-06T10:47:37;16.13;;;7.07;;
35959;SDS011;22043;50.970;7.192;2024-01-06T10:50:04;18.58;;;7.57;;
35959;SDS011;22043;50.970;7.192;2024-01-06T10:52:30;17.67;;;7.43;;
35959;SDS011;22043;50.970;7.192;2024-01-06T10:54:56;17.02;;;7.80;;
35959;SDS011;22043;50.970;7.192;2024-01-06T10:57:22;14.73;;;7.15;;
35959;SDS011;22043;50.970;7.192;2024-01-06T10:59:49;16.83;;;7.35;;
35959;SDS011;22043;50.970;7.192;2024-01-06T11:02:16;16.17;;;7.25;;
35959;SDS011;22043;50.970;7.192;2024-01-06T11:04:48;15.65;;;7.20;;
35959;SDS011;22043;50.970;7.192;2024-01-06T11:07:15;15.20;;;6.88;;
35959;SDS011;22043;50.970;7.192;2024-01-06T11:09:45;13.50;;;6.75;;
35959;SDS011;22043;50.970;7.192;2024-01-06T11:12:16;17.38;;;7.20;;
35959;SDS011;22043;50.970;7.192;2024-01-06T11:14:42;13.77;;;6.28;;
35959;SDS011;22043;50.970;7.192;2024-01-06T11:17:07;11.57;;;5.70;;
35959;SDS011;22043;50.970;7.192;2024-01-06T11:22:29;11.57;;;4.93;;
35959;SDS011;22043;50.970;7.192;2024-01-06T11:25:04;13.57;;;5.97;;
35959;SDS011;22043;50.970;7.192;2024-01-06T11:27:31;11.85;;;5.60;;
35959;SDS011;22043;50.970;7.192;2024-01-06T11:29:57;14.70;;;6.03;;
35959;SDS011;22043;50.970;7.192;2024-01-06T11:32:30;19.30;;;7.28;;
35959;SDS011;22043;50.970;7.192;2024-01-06T11:35:12;16.50;;;8.00;;
35959;SDS011;22043;50.970;7.192;2024-01-06T11:42:56;16.15;;;7.65;;
35959;SDS011;22043;50.970;7.192;2024-01-06T11:45:27;18.45;;;9.68;;
35959;SDS011;22043;50.970;7.192;2024-01-06T11:47:57;19.25;;;8.05;;
35959;SDS011;22043;50.970;7.192;2024-01-06T11:50:24;18.67;;;8.02;;
35959;SDS011;22043;50.970;7.192;2024-01-06T11:52:51;22.40;;;9.93;;
35959;SDS011;22043;50.970;7.192;2024-01-06T11:55:20;21.08;;;9.65;;
35959;SDS011;22043;50.970;7.192;2024-01-06T11:57:46;27.00;;;10.70;;
35959;SDS011;22043;50.970;7.192;2024-01-06T12:00:13;22.45;;;9.63;;
35959;SDS011;22043;50.970;7.192;2024-01-06T12:02:41;21.45;;;9.77;;
35959;SDS011;22043;50.970;7.192;2024-01-06T12:05:12;24.92;;;9.55;;
35959;SDS011;22043;50.970;7.192;2024-01-06T12:07:39;24.38;;;9.73;;
35959;SDS011;22043;50.970;7.192;2024-01-06T12:10:05;22.75;;;9.07;;
35959;SDS011;22043;50.970;7.192;2024-01-06T12:12:32;16.93;;;7.83;;
35959;SDS011;22043;50.970;7.192;2024-01-06T12:14:58;19.67;;;8.15;;
35959;SDS011;22043;50.970;7.192;2024-01-06T12:17:23;19.20;;;8.70;;
35959;SDS011;22043;50.970;7.192;2024-01-06T12:19:54;20.00;;;8.95;;
35959;SDS011;22043;50.970;7.192;2024-01-06T12:22:20;18.98;;;8.10;;
35959;SDS011;22043;50.970;7.192;2024-01-06T12:24:48;17.98;;;8.00;;
35959;SDS011;22043;50.970;7.192;2024-01-06T12:27:14;20.40;;;9.23;;
35959;SDS011;22043;50.970;7.192;2024-01-06T12:29:40;19.55;;;7.97;;
35959;SDS011;22043;50.970;7.192;2024-01-06T12:32:06;18.73;;;8.10;;
35959;SDS011;22043;50.970;7.192;2024-01-06T12:34:33;17.38;;;7.80;;
35959;SDS011;22043;50.970;7.192;2024-01-06T12:36:59;24.20;;;9.15;;
35959;SDS011;22043;50.970;7.192;2024-01-06T12:39:27;23.50;;;8.90;;
35959;SDS011;22043;50.970;7.192;2024-01-06T12:41:54;22.38;;;8.80;;
35959;SDS011;22043;50.970;7.192;2024-01-06T12:44:19;22.23;;;9.45;;
35959;SDS011;22043;50.970;7.192;2024-01-06T12:46:45;25.35;;;8.73;;
35959;SDS011;22043;50.970;7.192;2024-01-06T12:49:10;25.30;;;9.75;;
35959;SDS011;22043;50.970;7.192;2024-01-06T12:51:36;25.63;;;9.73;;
35959;SDS011;22043;50.970;7.192;2024-01-06T12:54:01;17.00;;;7.55;;
35959;SDS011;22043;50.970;7.192;2024-01-06T12:56:27;20.73;;;7.60;;
35959;SDS011;22043;50.970;7.192;2024-01-06T12:58:52;19.40;;;7.75;;
35959;SDS011;22043;50.970;7.192;2024-01-06T13:01:18;20.75;;;8.68;;
35959;SDS011;22043;50.970;7.192;2024-01-06T13:03:46;19.08;;;8.32;;
35959;SDS011;22043;50.970;7.192;2024-01-06T13:06:11;22.10;;;8.57;;
35959;SDS011;22043;50.970;7.192;2024-01-06T13:08:38;24.90;;;8.75;;
35959;SDS011;22043;50.970;7.192;2024-01-06T13:11:03;20.15;;;8.50;;
35959;SDS011;22043;50.970;7.192;2024-01-06T13:13:28;18.08;;;8.30;;
35959;SDS011;22043;50.970;7.192;2024-01-06T13:15:56;20.73;;;9.05;;
35959;SDS011;22043;50.970;7.192;2024-01-06T13:18:21;21.85;;;8.60;;
35959;SDS011;22043;50.970;7.192;2024-01-06T13:20:47;22.80;;;9.70;;
35959;SDS011;22043;50.970;7.192;2024-01-06T13:23:12;25.02;;;9.82;;
35959;SDS011;22043;50.970;7.192;2024-01-06T13:25:38;20.13;;;7.65;;
35959;SDS011;22043;50.970;7.192;2024-01-06T13:28:06;20.42;;;8.23;;
35959;SDS011;22043;50.970;7.192;2024-01-06T13:30:32;18.77;;;7.80;;
35959;SDS011;22043;50.970;7.192;2024-01-06T13:32:58;19.35;;;8.93;;
35959;SDS011;22043;50.970;7.192;2024-01-06T13:35:24;20.15;;;8.23;;
35959;SDS011;22043;50.970;7.192;2024-01-06T13:37:51;24.45;;;9.23;;
35959;SDS011;22043;50.970;7.192;2024-01-06T13:40:21;20.73;;;10.05;;
35959;SDS011;22043;50.970;7.192;2024-01-06T13:42:50;23.33;;;10.48;;
35959;SDS011;22043;50.970;7.192;2024-01-06T13:45:16;23.40;;;9.65;;
35959;SDS011;22043;50.970;7.192;2024-01-06T13:47:41;25.00;;;10.05;;
35959;SDS011;22043;50.970;7.192;2024-01-06T13:50:09;25.52;;;10.38;;
35959;SDS011;22043;50.970;7.192;2024-01-06T13:52:37;21.83;;;9.77;;
35959;SDS011;22043;50.970;7.192;2024-01-06T13:55:02;21.13;;;10.45;;
35959;SDS011;22043;50.970;7.192;2024-01-06T13:57:28;20.50;;;8.55;;
35959;SDS011;22043;50.970;7.192;2024-01-06T13:59:54;21.65;;;9.23;;
35959;SDS011;22043;50.970;7.192;2024-01-06T14:02:19;20.25;;;9.45;;
35959;SDS011;22043;50.970;7.192;2024-01-06T14:04:44;21.65;;;9.00;;
35959;SDS011;22043;50.970;7.192;2024-01-06T14:07:10;19.48;;;9.05;;
35959;SDS011;22043;50.970;7.192;2024-01-06T14:09:35;20.55;;;8.93;;
35959;SDS011;22043;50.970;7.192;2024-01-06T14:12:01;21.77;;;8.60;;
35959;SDS011;22043;50.970;7.192;2024-01-06T14:14:27;20.52;;;8.43;;
35959;SDS011;22043;50.970;7.192;2024-01-06T14:16:52;16.83;;;7.90;;
35959;SDS011;22043;50.970;7.192;2024-01-06T14:19:18;17.48;;;7.15;;
35959;SDS011;22043;50.970;7.192;2024-01-06T14:21:43;24.40;;;10.65;;
35959;SDS011;22043;50.970;7.192;2024-01-06T14:24:09;23.17;;;9.43;;
35959;SDS011;22043;50.970;7.192;2024-01-06T14:26:35;19.73;;;7.40;;
35959;SDS011;22043;50.970;7.192;2024-01-06T14:29:01;18.30;;;8.23;;
35959;SDS011;22043;50.970;7.192;2024-01-06T14:31:29;18.30;;;8.30;;
35959;SDS011;22043;50.970;7.192;2024-01-06T14:33:54;17.33;;;7.65;;
35959;SDS011;22043;50.970;7.192;2024-01-06T14:36:20;21.95;;;8.35;;
35959;SDS011;22043;50.970;7.192;2024-01-06T14:38:45;18.60;;;8.20;;